Time;durP1;ratioP1;P1;durP2;ratioP2;P2;SDS_P1;SDS_P2;PMS_P1;PMS_P2;Temp;Humidity;BMP_temperature;BMP_pressure;BME280_temperature;BME280_humidity;BME280_pressure;Samples;Min_cycle;Max_cycle;Signal;HPM_P1;HPM_P2
2023/06/22 00:01:20;;;;;;;2.30;2.30;;;24.20;70.10;;;;;;5085839;28;43372;-72
2023/06/22 00:03:50;;;;;;;2.37;2.30;;;24.20;70.10;;;;;;5084975;28;43470;-72
2023/06/22 00:06:18;;;;;;;2.20;2.20;;;24.20;70.30;;;;;;5085578;28;43467;-73
2023/06/22 00:08:46;;;;;;;2.20;2.20;;;24.20;70.10;;;;;;5084906;28;45530;-72
2023/06/22 00:11:14;;;;;;;2.20;2.20;;;24.30;69.90;;;;;;5085814;28;44051;-73
2023/06/22 00:13:42;;;;;;;2.63;2.53;;;24.40;69.50;;;;;;5086366;28;43554;-73
2023/06/22 00:16:10;;;;;;;2.30;2.30;;;24.50;69.10;;;;;;5086493;28;43541;-73
2023/06/22 00:18:38;;;;;;;2.43;2.33;;;24.60;69.00;;;;;;5085783;28;43767;-73
2023/06/22 00:21:08;;;;;;;2.30;2.30;;;24.50;68.70;;;;;;5086014;28;43414;-73
2023/06/22 00:23:36;;;;;;;2.10;2.10;;;24.50;68.90;;;;;;5084991;28;43470;-73
2023/06/22 00:26:04;;;;;;;2.50;2.30;;;24.50;69.20;;;;;;5086991;28;43424;-73
2023/06/22 00:28:32;;;;;;;2.17;2.17;;;24.40;69.10;;;;;;5084989;28;46083;-73
2023/06/22 00:31:02;;;;;;;2.10;2.10;;;24.40;69.20;;;;;;5084563;28;43703;-73
2023/06/22 00:33:31;;;;;;;2.70;2.60;;;24.40;69.40;;;;;;5086241;28;43348;-73
2023/06/22 00:35:59;;;;;;;2.60;2.50;;;24.30;69.60;;;;;;5085240;28;43409;-73
2023/06/22 00:38:28;;;;;;;2.30;2.30;;;24.30;69.60;;;;;;5116801;27;45532;-73
2023/06/22 00:40:56;;;;;;;2.90;2.80;;;24.30;69.60;;;;;;5118307;27;43398;-73
2023/06/22 00:43:24;;;;;;;2.27;2.27;;;24.30;69.70;;;;;;5085581;28;43397;-73
2023/06/22 00:45:52;;;;;;;2.43;2.43;;;24.30;70.00;;;;;;5084670;28;43462;-73
2023/06/22 00:48:20;;;;;;;2.63;2.53;;;24.20;69.90;;;;;;5084946;28;45878;-73
2023/06/22 00:50:50;;;;;;;2.73;2.63;;;24.30;69.90;;;;;;5084563;28;43811;-73
2023/06/22 00:53:18;;;;;;;2.93;2.83;;;24.40;69.50;;;;;;5085720;28;43482;-73
2023/06/22 00:55:51;;;;;;;3.07;2.97;;;24.50;69.10;;;;;;5085136;28;43404;-73
2023/06/22 00:58:21;;;;;;;2.57;2.53;;;24.50;68.80;;;;;;5084519;28;45897;-73
2023/06/22 01:00:49;;;;;;;2.90;2.80;;;24.50;68.80;;;;;;5084407;28;44385;-73
2023/06/22 01:03:18;;;;;;;2.60;2.50;;;24.50;68.90;;;;;;5087826;28;43482;-73
2023/06/22 01:05:47;;;;;;;2.80;2.70;;;24.40;69.20;;;;;;5089293;28;43374;-73
2023/06/22 01:08:22;;;;;;;2.70;2.70;;;24.40;69.30;;;;;;5088030;28;46233;-73
2023/06/22 01:10:53;;;;;;;2.80;2.70;;;24.40;69.30;;;;;;5081556;28;44362;-73
2023/06/22 01:13:27;;;;;;;2.97;2.87;;;24.40;69.50;;;;;;5088985;28;43402;-72
2023/06/22 01:16:00;;;;;;;3.00;2.90;;;24.30;69.70;;;;;;5089052;28;43343;-72
2023/06/22 01:18:28;;;;;;;2.57;2.57;;;24.30;69.70;;;;;;5086513;28;45483;-73
2023/06/22 01:20:57;;;;;;;3.00;2.90;;;24.30;69.70;;;;;;5088723;28;43373;-72
2023/06/22 01:23:28;;;;;;;3.03;2.92;;;24.30;69.80;;;;;;5121999;27;43433;-73
2023/06/22 01:26:03;;;;;;;2.97;2.87;;;24.20;70.00;;;;;;5087554;28;43373;-72
2023/06/22 01:28:51;;;;;;;2.70;2.60;;;24.20;70.80;;;;;;5087465;28;45337;-72
2023/06/22 01:31:20;;;;;;;2.80;2.70;;;24.30;69.90;;;;;;5088320;28;43301;-72
2023/06/22 01:33:51;;;;;;;3.07;2.97;;;24.40;69.60;;;;;;5087745;28;43408;-72
2023/06/22 01:36:19;;;;;;;3.17;3.07;;;24.50;69.20;;;;;;5083947;28;43415;-73
2023/06/22 01:38:47;;;;;;;2.80;2.70;;;24.50;68.90;;;;;;5086173;28;43607;-73
2023/06/22 01:41:15;;;;;;;2.83;2.73;;;24.50;69.00;;;;;;5118582;27;43614;-72
2023/06/22 01:43:43;;;;;;;3.20;3.10;;;24.50;69.10;;;;;;5088041;28;43388;-72
2023/06/22 01:46:12;;;;;;;3.50;3.30;;;24.40;69.40;;;;;;5087578;28;43364;-73
2023/06/22 01:48:40;;;;;;;3.17;3.07;;;24.40;69.40;;;;;;5088275;28;43607;-73
2023/06/22 01:51:08;;;;;;;2.97;2.87;;;24.40;69.50;;;;;;5086460;28;43680;-72
2023/06/22 01:53:37;;;;;;;3.10;3.00;;;24.30;69.60;;;;;;5086833;28;43363;-72
2023/06/22 01:56:05;;;;;;;3.10;3.00;;;24.30;69.90;;;;;;5088040;28;43475;-72
2023/06/22 01:58:35;;;;;;;3.10;3.00;;;24.30;69.90;;;;;;5086579;28;46027;-73
2023/06/22 02:01:08;;;;;;;2.70;2.70;;;24.30;69.80;;;;;;5086901;28;43406;-73
2023/06/22 02:03:39;;;;;;;3.33;3.23;;;24.30;69.90;;;;;;5088306;28;43399;-73
2023/06/22 02:06:09;;;;;;;3.00;2.90;;;24.20;70.00;;;;;;5087604;28;43601;-73
2023/06/22 02:08:42;;;;;;;3.10;3.00;;;24.20;70.10;;;;;;5088311;28;44144;-73
2023/06/22 02:11:10;;;;;;;3.10;3.00;;;24.30;70.00;;;;;;5087033;28;44594;-73
2023/06/22 02:13:42;;;;;;;3.00;2.90;;;24.40;69.70;;;;;;5087038;28;43418;-73
2023/06/22 02:16:11;;;;;;;2.83;2.80;;;24.50;69.30;;;;;;5087984;28;43515;-73
2023/06/22 02:18:46;;;;;;;2.30;2.30;;;24.50;69.10;;;;;;5086375;28;45645;-73
2023/06/22 02:21:14;;;;;;;2.97;2.87;;;24.50;69.10;;;;;;5088608;28;43437;-73
2023/06/22 02:23:42;;;;;;;3.27;3.17;;;24.50;69.10;;;;;;5087237;28;43523;-73
2023/06/22 02:26:10;;;;;;;3.00;2.90;;;24.40;69.50;;;;;;5088467;28;43431;-73
2023/06/22 02:28:38;;;;;;;3.07;2.97;;;24.40;69.50;;;;;;5087754;28;43678;-73
2023/06/22 02:31:06;;;;;;;3.05;2.95;;;24.30;69.40;;;;;;5087752;28;43479;-72
2023/06/22 02:33:34;;;;;;;3.10;3.00;;;24.30;69.50;;;;;;5087200;28;43382;-73
2023/06/22 02:36:05;;;;;;;3.23;3.13;;;24.30;69.80;;;;;;5086795;28;43413;-73
2023/06/22 02:38:34;;;;;;;3.13;3.03;;;24.20;69.80;;;;;;5087105;28;43910;-73
2023/06/22 02:41:02;;;;;;;2.83;2.63;;;24.30;69.80;;;;;;5087177;28;44848;-73
2023/06/22 02:43:30;;;;;;;2.77;2.77;;;24.30;69.90;;;;;;5087759;28;47515;-73
2023/06/22 02:45:58;;;;;;;3.10;3.00;;;24.20;70.00;;;;;;5088237;28;43370;-73
2023/06/22 02:48:26;;;;;;;3.13;3.03;;;24.20;70.10;;;;;;5086737;28;45918;-73
2023/06/22 02:50:55;;;;;;;2.87;2.87;;;24.20;70.00;;;;;;5087499;28;43459;-73
2023/06/22 02:53:24;;;;;;;3.20;3.10;;;24.30;69.70;;;;;;5085899;28;43403;-72
2023/06/22 02:55:52;;;;;;;3.40;3.20;;;24.40;69.30;;;;;;5086909;28;43415;-73
2023/06/22 02:58:21;;;;;;;3.10;3.00;;;24.50;69.10;;;;;;5086235;28;44079;-72
2023/06/22 03:00:52;;;;;;;3.13;3.03;;;24.50;68.90;;;;;;5087102;28;43368;-73
2023/06/22 03:03:20;;;;;;;3.20;3.10;;;24.50;69.00;;;;;;5085858;28;43375;-72
2023/06/22 03:05:49;;;;;;;3.10;3.00;;;24.40;69.20;;;;;;5088768;28;43390;-72
2023/06/22 03:08:17;;;;;;;2.93;2.90;;;24.40;69.40;;;;;;5086218;28;43813;-73
2023/06/22 03:10:46;;;;;;;3.50;3.40;;;24.40;69.40;;;;;;5087319;28;43394;-73
2023/06/22 03:13:15;;;;;;;3.30;3.20;;;24.40;69.50;;;;;;5087487;28;43454;-73
2023/06/22 03:15:43;;;;;;;3.13;3.03;;;24.30;69.60;;;;;;5087041;28;43415;-73
2023/06/22 03:18:11;;;;;;;2.97;2.87;;;24.30;69.90;;;;;;5085632;28;44994;-73
2023/06/22 03:20:39;;;;;;;3.27;3.17;;;24.30;69.90;;;;;;5085873;28;44521;-73
2023/06/22 03:23:09;;;;;;;3.30;3.20;;;24.30;69.80;;;;;;5086772;28;43421;-73
2023/06/22 03:25:39;;;;;;;2.70;2.70;;;24.30;70.00;;;;;;5084755;28;43467;-73
2023/06/22 03:28:09;;;;;;;3.07;2.97;;;24.20;70.10;;;;;;5079504;28;45521;-73
2023/06/22 03:30:37;;;;;;;3.10;3.00;;;24.20;70.10;;;;;;5085131;28;43438;-73
2023/06/22 03:33:05;;;;;;;3.13;3.03;;;24.30;69.80;;;;;;5096968;28;43554;-73
2023/06/22 03:35:34;;;;;;;2.83;2.73;;;24.40;69.40;;;;;;5118342;27;43504;-73
2023/06/22 03:38:02;;;;;;;3.37;3.27;;;24.50;69.10;;;;;;5085839;28;45627;-73
2023/06/22 03:40:31;;;;;;;3.13;3.03;;;24.50;68.90;;;;;;5086289;28;44238;-73
2023/06/22 03:43:01;;;;;;;3.23;3.13;;;24.50;69.00;;;;;;5085799;28;43426;-73
2023/06/22 03:45:31;;;;;;;3.43;3.33;;;24.50;69.20;;;;;;5086785;28;43481;-72
2023/06/22 03:48:00;;;;;;;3.10;3.00;;;24.40;69.40;;;;;;5085216;28;45990;-73
2023/06/22 03:50:28;;;;;;;3.63;3.43;;;24.40;69.40;;;;;;5084795;28;44554;-73
2023/06/22 03:52:56;;;;;;;3.47;3.20;;;24.40;69.50;;;;;;5085734;28;43395;-73
2023/06/22 03:55:24;;;;;;;4.80;3.30;;;24.30;69.60;;;;;;5085020;28;43405;-73
2023/06/22 03:57:54;;;;;;;5.00;3.93;;;24.30;69.80;;;;;;5084715;28;45738;-72
2023/06/22 04:00:22;;;;;;;5.23;3.70;;;24.30;69.90;;;;;;5086814;28;43310;-73
2023/06/22 04:02:51;;;;;;;4.28;3.70;;;24.30;69.90;;;;;;5085839;28;43526;-72
2023/06/22 04:05:20;;;;;;;5.30;4.70;;;24.20;69.80;;;;;;5087399;28;43377;-72
2023/06/22 04:07:47;;;;;;;6.20;5.30;;;24.20;70.00;;;;;;5086419;28;43551;-73
2023/06/22 04:10:15;;;;;;;6.47;5.20;;;24.20;70.10;;;;;;5085852;28;44912;-73
2023/06/22 04:12:45;;;;;;;12.77;5.83;;;24.30;70.00;;;;;;5085664;28;43419;-73
2023/06/22 04:15:13;;;;;;;16.30;6.93;;;24.40;69.70;;;;;;5082283;28;43371;-72
2023/06/22 04:17:41;;;;;;;10.13;5.87;;;24.50;69.40;;;;;;5085242;28;45363;-73
2023/06/22 04:20:11;;;;;;;11.97;5.87;;;24.60;69.00;;;;;;5119453;27;43987;-72
2023/06/22 04:22:39;;;;;;;9.03;6.27;;;24.50;68.80;;;;;;5084910;28;43305;-73
2023/06/22 04:25:08;;;;;;;10.60;5.87;;;24.50;68.80;;;;;;5086975;28;43384;-73
2023/06/22 04:27:37;;;;;;;13.47;6.83;;;24.50;69.20;;;;;;5085000;28;45715;-73
2023/06/22 04:30:06;;;;;;;9.97;5.87;;;24.50;69.30;;;;;;5085223;28;44992;-72
2023/06/22 04:32:35;;;;;;;8.20;5.57;;;24.40;69.30;;;;;;5082882;28;43409;-73
2023/06/22 04:35:04;;;;;;;6.82;5.28;;;24.40;69.40;;;;;;5084706;28;43387;-73
2023/06/22 04:37:33;;;;;;;9.32;5.55;;;24.30;69.70;;;;;;5087045;28;43615;-72
2023/06/22 04:40:03;;;;;;;6.83;5.43;;;24.30;69.80;;;;;;5088344;28;44446;-72
2023/06/22 04:42:31;;;;;;;7.77;5.10;;;24.30;69.80;;;;;;5088162;28;43450;-73
2023/06/22 04:44:59;;;;;;;7.07;5.60;;;24.30;69.90;;;;;;5088246;28;43458;-72
2023/06/22 04:47:29;;;;;;;7.50;5.90;;;24.30;70.10;;;;;;5089605;28;43853;-73
2023/06/22 04:49:57;;;;;;;8.80;5.83;;;24.30;70.20;;;;;;5089696;28;43407;-73
2023/06/22 04:52:27;;;;;;;8.47;5.40;;;24.30;70.10;;;;;;5088593;28;43437;-72
2023/06/22 04:54:59;;;;;;;7.00;5.50;;;24.30;70.10;;;;;;5089801;28;43496;-72
2023/06/22 04:57:31;;;;;;;8.70;6.17;;;24.20;70.10;;;;;;5089716;28;43610;-73
2023/06/22 05:00:11;;;;;;;13.30;6.55;;;24.20;70.20;;;;;;5089097;28;44688;-72
2023/06/22 05:02:39;;;;;;;8.20;5.73;;;24.30;70.20;;;;;;5090329;28;43411;-73
2023/06/22 05:05:08;;;;;;;7.10;5.70;;;24.30;69.80;;;;;;5089671;28;44081;-73
2023/06/22 05:07:36;;;;;;;6.77;5.43;;;24.50;69.50;;;;;;5086654;28;45973;-72
2023/06/22 05:10:06;;;;;;;7.67;5.93;;;24.50;69.10;;;;;;5089413;28;43323;-72
2023/06/22 05:12:34;;;;;;;6.17;5.30;;;24.60;68.90;;;;;;5088376;28;43376;-73
2023/06/22 05:15:02;;;;;;;8.20;5.43;;;24.60;68.90;;;;;;5083232;28;43429;-73
2023/06/22 05:17:30;;;;;;;8.47;5.47;;;24.50;69.00;;;;;;5087613;28;46005;-72
2023/06/22 05:19:58;;;;;;;6.43;5.60;;;24.50;69.40;;;;;;5115853;27;44586;-73
2023/06/22 05:22:26;;;;;;;5.20;4.70;;;24.40;69.30;;;;;;5081543;28;43400;-72
2023/06/22 05:24:54;;;;;;;6.70;5.43;;;24.40;69.30;;;;;;5090091;28;43415;-72
2023/06/22 05:27:25;;;;;;;7.30;5.50;;;24.40;69.60;;;;;;5087535;28;43859;-72
2023/06/22 05:29:53;;;;;;;6.60;5.27;;;24.30;69.80;;;;;;5089246;28;43450;-73
2023/06/22 05:32:21;;;;;;;6.30;5.30;;;24.30;69.90;;;;;;5121491;27;43356;-73
2023/06/22 05:34:49;;;;;;;7.77;4.87;;;24.30;69.80;;;;;;5089050;28;43471;-72
2023/06/22 05:37:17;;;;;;;6.87;5.00;;;24.30;69.80;;;;;;5089201;28;44067;-72
2023/06/22 05:39:45;;;;;;;6.20;5.10;;;24.20;70.00;;;;;;5088783;28;43397;-72
2023/06/22 05:42:13;;;;;;;6.93;4.97;;;24.30;70.20;;;;;;5089726;28;43379;-73
2023/06/22 05:44:42;;;;;;;6.03;5.03;;;24.30;70.00;;;;;;5089938;28;43360;-72
2023/06/22 05:47:10;;;;;;;6.23;5.23;;;24.40;69.60;;;;;;5089193;28;43749;-73
2023/06/22 05:49:38;;;;;;;5.03;4.63;;;24.50;69.20;;;;;;5088316;28;43443;-73
2023/06/22 05:52:07;;;;;;;5.47;4.97;;;24.50;69.00;;;;;;5089456;28;43504;-73
2023/06/22 05:54:35;;;;;;;5.30;4.80;;;24.50;68.90;;;;;;5084577;28;43414;-72
2023/06/22 05:57:04;;;;;;;6.57;5.23;;;24.50;68.90;;;;;;5088494;28;43740;-73
2023/06/22 05:59:31;;;;;;;5.30;4.87;;;24.50;69.50;;;;;;5121953;27;44373;-73
2023/06/22 06:02:01;;;;;;;5.20;4.80;;;24.40;69.40;;;;;;5088290;28;43352;-72
2023/06/22 06:04:29;;;;;;;4.60;4.30;;;24.40;69.40;;;;;;5087947;28;43429;-73
2023/06/22 06:06:57;;;;;;;5.03;4.63;;;24.40;69.50;;;;;;5089112;28;43836;-72
2023/06/22 06:09:25;;;;;;;5.23;4.67;;;24.30;69.80;;;;;;5087704;28;45083;-73
2023/06/22 06:11:53;;;;;;;4.67;4.27;;;24.30;69.90;;;;;;5088308;28;43711;-72
2023/06/22 06:14:21;;;;;;;4.50;4.20;;;24.30;69.90;;;;;;5086388;28;43402;-73
2023/06/22 06:16:49;;;;;;;5.07;4.40;;;24.20;69.80;;;;;;5088690;28;43659;-72
2023/06/22 06:19:18;;;;;;;4.93;4.37;;;24.20;70.10;;;;;;5089087;28;43380;-73
2023/06/22 06:21:46;;;;;;;4.07;3.87;;;24.20;70.20;;;;;;5084007;28;43430;-73
2023/06/22 06:24:14;;;;;;;5.00;4.50;;;24.20;70.10;;;;;;5088250;28;43385;-72
2023/06/22 06:26:42;;;;;;;4.67;4.30;;;24.20;70.00;;;;;;5088433;28;43646;-72
2023/06/22 06:29:11;;;;;;;4.63;4.33;;;24.20;70.10;;;;;;5087208;28;44658;-73
2023/06/22 06:31:39;;;;;;;4.73;4.33;;;24.20;70.40;;;;;;5088684;28;43335;-72
2023/06/22 06:34:07;;;;;;;4.40;4.10;;;24.20;70.30;;;;;;5088244;28;43482;-73
2023/06/22 06:36:37;;;;;;;5.13;4.73;;;24.30;70.00;;;;;;5088362;28;43679;-72
2023/06/22 06:39:05;;;;;;;4.47;4.17;;;24.40;69.60;;;;;;5088681;28;43368;-73
2023/06/22 06:41:33;;;;;;;4.10;3.80;;;24.50;69.10;;;;;;5087246;28;43372;-72
2023/06/22 06:44:01;;;;;;;4.53;4.33;;;24.60;69.10;;;;;;5088334;28;43426;-72
2023/06/22 06:46:29;;;;;;;4.00;3.80;;;24.50;68.90;;;;;;5087984;28;43738;-72
2023/06/22 06:48:57;;;;;;;4.47;4.20;;;24.50;69.10;;;;;;5086460;28;44560;-73
2023/06/22 06:51:25;;;;;;;4.27;4.00;;;24.40;69.40;;;;;;5088720;28;43313;-73
2023/06/22 06:53:54;;;;;;;4.50;4.20;;;24.40;69.50;;;;;;5088666;28;43375;-73
2023/06/22 06:56:22;;;;;;;4.80;4.40;;;24.40;69.50;;;;;;5087015;28;45885;-72
2023/06/22 06:58:51;;;;;;;4.13;3.93;;;24.30;69.50;;;;;;5086349;28;44803;-73
2023/06/22 07:01:19;;;;;;;4.03;3.83;;;24.30;70.00;;;;;;5086081;28;44068;-73
2023/06/22 07:03:49;;;;;;;4.20;4.00;;;24.30;70.00;;;;;;5088878;28;43457;-73
2023/06/22 07:06:17;;;;;;;4.07;3.77;;;24.30;70.00;;;;;;5088422;28;43880;-73
2023/06/22 07:08:45;;;;;;;4.57;4.27;;;24.30;69.90;;;;;;5087175;28;43363;-73
2023/06/22 07:11:15;;;;;;;4.47;4.15;;;24.20;70.10;;;;;;5087403;28;43538;-73
2023/06/22 07:13:43;;;;;;;3.90;3.70;;;24.20;70.30;;;;;;5087589;28;43617;-73
2023/06/22 07:16:11;;;;;;;3.70;3.50;;;24.30;70.20;;;;;;5086574;28;45528;-72
2023/06/22 07:18:40;;;;;;;4.00;3.80;;;24.30;69.70;;;;;;5088286;28;43340;-73
2023/06/22 07:21:09;;;;;;;3.93;3.73;;;24.50;69.50;;;;;;5086698;28;43413;-73
2023/06/22 07:23:37;;;;;;;3.57;3.40;;;24.50;69.20;;;;;;5087756;28;43352;-73
2023/06/22 07:26:06;;;;;;;3.83;3.63;;;24.50;69.10;;;;;;5087957;28;43785;-73
2023/06/22 07:28:37;;;;;;;4.00;3.80;;;24.50;69.10;;;;;;5087941;28;43378;-73
2023/06/22 07:31:05;;;;;;;3.37;3.23;;;24.40;69.50;;;;;;5087372;28;43436;-73
2023/06/22 07:33:33;;;;;;;3.63;3.43;;;24.40;69.60;;;;;;5092239;28;43423;-73
2023/06/22 07:36:02;;;;;;;3.90;3.70;;;24.30;69.50;;;;;;5086811;28;45593;-73
2023/06/22 07:38:30;;;;;;;3.90;3.70;;;24.30;69.50;;;;;;5086267;28;44598;-73
2023/06/22 07:40:58;;;;;;;4.03;3.83;;;24.30;70.00;;;;;;5087129;28;43337;-73
2023/06/22 07:43:26;;;;;;;3.57;3.40;;;24.30;70.10;;;;;;5088371;28;43304;-73
2023/06/22 07:45:55;;;;;;;3.60;3.40;;;24.30;70.10;;;;;;5087643;28;43578;-73
2023/06/22 07:48:23;;;;;;;3.83;3.63;;;24.20;69.80;;;;;;5086667;28;44751;-71
2023/06/22 07:50:53;;;;;;;3.60;3.30;;;24.20;70.10;;;;;;5086369;28;43399;-73
2023/06/22 07:53:21;;;;;;;3.40;3.30;;;24.20;70.40;;;;;;5086393;28;43558;-72
2023/06/22 07:55:49;;;;;;;3.50;3.40;;;24.20;70.40;;;;;;5087841;28;43598;-72
2023/06/22 07:58:18;;;;;;;3.57;3.40;;;24.30;70.10;;;;;;5087115;28;44436;-72
2023/06/22 08:00:48;;;;;;;3.63;3.50;;;24.40;69.60;;;;;;5087539;28;43379;-73
2023/06/22 08:03:18;;;;;;;3.20;3.10;;;24.40;69.30;;;;;;5085922;28;43601;-73
2023/06/22 08:05:46;;;;;;;3.57;3.47;;;24.40;69.20;;;;;;5086082;28;45151;-73
2023/06/22 08:08:14;;;;;;;3.50;3.40;;;24.40;69.20;;;;;;5103847;28;44844;-73
2023/06/22 08:10:42;;;;;;;3.33;3.23;;;24.40;69.70;;;;;;5121236;27;44432;-72
2023/06/22 08:13:11;;;;;;;3.50;3.40;;;24.30;69.80;;;;;;5120755;27;43552;-73
2023/06/22 08:15:39;;;;;;;3.10;3.00;;;24.30;69.80;;;;;;5086430;28;45968;-73
2023/06/22 08:18:06;;;;;;;3.30;3.20;;;24.30;69.70;;;;;;5086407;28;43466;-72
2023/06/22 08:20:36;;;;;;;3.33;3.23;;;24.20;69.80;;;;;;5086905;28;44115;-73
2023/06/22 08:23:05;;;;;;;3.50;3.40;;;24.20;70.20;;;;;;5085934;28;43458;-72
2023/06/22 08:25:34;;;;;;;3.20;3.10;;;24.20;70.20;;;;;;5087240;28;43606;-72
2023/06/22 08:28:02;;;;;;;3.67;3.57;;;24.20;70.10;;;;;;5085214;28;44895;-72
2023/06/22 08:30:29;;;;;;;3.57;3.47;;;24.10;70.00;;;;;;5087777;28;43379;-72
2023/06/22 08:32:57;;;;;;;3.17;3.07;;;24.10;70.40;;;;;;5086580;28;43528;-73
2023/06/22 08:35:25;;;;;;;3.30;3.20;;;24.10;70.30;;;;;;5087520;28;43864;-72
2023/06/22 08:37:56;;;;;;;3.20;3.10;;;24.30;70.30;;;;;;5086932;28;43422;-73
2023/06/22 08:40:25;;;;;;;3.23;3.13;;;24.40;69.80;;;;;;5087509;28;43401;-73
2023/06/22 08:42:53;;;;;;;3.20;3.10;;;24.40;69.50;;;;;;5087887;28;43395;-72
2023/06/22 08:45:21;;;;;;;3.30;3.20;;;24.40;69.40;;;;;;5085812;28;45308;-73
2023/06/22 08:47:49;;;;;;;3.63;3.43;;;24.40;69.30;;;;;;5086368;28;44773;-72
2023/06/22 08:50:17;;;;;;;3.20;3.10;;;24.40;69.60;;;;;;5086942;28;43434;-72
2023/06/22 08:52:45;;;;;;;3.03;2.93;;;24.30;69.90;;;;;;5088232;28;43347;-72
2023/06/22 08:55:15;;;;;;;3.43;3.33;;;24.30;69.90;;;;;;5086663;28;45972;-73
2023/06/22 08:57:43;;;;;;;3.07;2.97;;;24.30;69.90;;;;;;5087278;28;43359;-73
2023/06/22 09:00:17;;;;;;;3.00;2.90;;;24.20;69.90;;;;;;5086076;28;43383;-72
2023/06/22 09:02:45;;;;;;;3.17;3.07;;;24.20;70.40;;;;;;5081514;28;43367;-73
2023/06/22 09:05:13;;;;;;;3.17;3.07;;;24.10;70.20;;;;;;5086032;28;45703;-72
2023/06/22 09:07:41;;;;;;;3.03;2.93;;;24.20;70.20;;;;;;5079867;28;44598;-72
2023/06/22 09:10:09;;;;;;;3.13;3.03;;;24.10;70.20;;;;;;5086309;28;43471;-72
2023/06/22 09:12:40;;;;;;;3.30;3.20;;;24.10;70.50;;;;;;5085837;28;43525;-73
2023/06/22 09:15:08;;;;;;;3.10;3.00;;;24.10;70.50;;;;;;5086033;28;45701;-71
2023/06/22 09:17:43;;;;;;;2.90;2.80;;;24.20;70.30;;;;;;5087293;28;43594;-71
2023/06/22 09:20:12;;;;;;;2.90;2.80;;;24.30;70.60;;;;;;5087130;28;43432;-71
2023/06/22 09:22:40;;;;;;;3.03;2.93;;;24.40;69.60;;;;;;5087176;28;43482;-72
2023/06/22 09:25:09;;;;;;;3.27;3.17;;;24.40;69.40;;;;;;5089926;28;43693;-72
2023/06/22 09:27:38;;;;;;;2.90;2.80;;;24.40;69.50;;;;;;5089570;28;44027;-73
2023/06/22 09:30:07;;;;;;;3.23;3.13;;;24.40;69.70;;;;;;5089452;28;43368;-73
2023/06/22 09:32:35;;;;;;;2.90;2.80;;;24.30;70.00;;;;;;5090567;28;43339;-73
2023/06/22 09:35:06;;;;;;;2.90;2.80;;;24.30;70.70;;;;;;5089704;28;43844;-72
2023/06/22 09:37:34;;;;;;;3.00;2.90;;;24.30;70.10;;;;;;5089209;28;44843;-73
2023/06/22 09:40:07;;;;;;;3.10;3.00;;;24.20;70.10;;;;;;5089688;28;43403;-73
2023/06/22 09:42:35;;;;;;;2.90;2.80;;;24.20;70.40;;;;;;5089433;28;43521;-73
2023/06/22 09:45:06;;;;;;;3.03;2.93;;;24.20;70.40;;;;;;5090387;28;44176;-73
2023/06/22 09:47:34;;;;;;;2.97;2.87;;;24.30;70.20;;;;;;5089042;28;43408;-73
2023/06/22 09:50:02;;;;;;;3.10;3.00;;;24.40;69.80;;;;;;5090121;28;43291;-73
2023/06/22 09:52:30;;;;;;;3.00;2.90;;;24.40;69.50;;;;;;5088507;28;43407;-73
2023/06/22 09:55:15;;;;;;;2.53;2.53;;;24.50;69.50;;;;;;5090488;28;43611;-73
2023/06/22 09:57:44;;;;;;;3.20;3.10;;;24.40;69.60;;;;;;5089685;28;43440;-74
2023/06/22 10:00:14;;;;;;;3.03;2.83;;;24.40;69.90;;;;;;5088733;28;43362;-73
2023/06/22 10:02:43;;;;;;;2.93;2.83;;;24.30;70.00;;;;;;5088535;28;43446;-72
2023/06/22 10:05:11;;;;;;;3.17;3.07;;;24.30;70.10;;;;;;5083722;28;43878;-73
2023/06/22 10:07:42;;;;;;;2.90;2.80;;;24.30;70.10;;;;;;5089350;28;43359;-72
2023/06/22 10:10:10;;;;;;;2.77;2.77;;;24.20;70.20;;;;;;5088038;28;43451;-72
2023/06/22 10:12:42;;;;;;;2.57;2.47;;;24.20;70.40;;;;;;5089985;28;43303;-73
2023/06/22 10:15:11;;;;;;;3.10;2.90;;;24.20;70.40;;;;;;5089814;28;43954;-72
2023/06/22 10:17:41;;;;;;;2.50;2.50;;;24.20;70.40;;;;;;5089689;28;43290;-72
2023/06/22 10:20:13;;;;;;;2.70;2.60;;;24.20;70.40;;;;;;5089407;28;43413;-72
2023/06/22 10:22:41;;;;;;;2.63;2.63;;;24.20;70.80;;;;;;5088942;28;43546;-73
2023/06/22 10:25:09;;;;;;;2.70;2.70;;;24.20;70.60;;;;;;5088778;28;45342;-73
2023/06/22 10:27:39;;;;;;;2.70;2.60;;;24.20;70.30;;;;;;5089764;28;43398;-73
2023/06/22 10:30:08;;;;;;;2.30;2.30;;;24.40;70.10;;;;;;5088711;28;43508;-72
2023/06/22 10:32:38;;;;;;;2.90;2.80;;;24.40;69.60;;;;;;5088857;28;43407;-72
2023/06/22 10:35:08;;;;;;;2.50;2.50;;;24.50;69.60;;;;;;5088448;28;45690;-73
2023/06/22 10:37:36;;;;;;;2.57;2.53;;;24.40;69.60;;;;;;5088815;28;43781;-72
2023/06/22 10:40:05;;;;;;;2.50;2.50;;;24.40;69.80;;;;;;5089379;28;43423;-72
2023/06/22 10:42:34;;;;;;;2.40;2.40;;;24.40;70.00;;;;;;5089698;28;43418;-72
2023/06/22 10:45:02;;;;;;;2.40;2.30;;;24.30;70.00;;;;;;5090050;28;43929;-73
2023/06/22 10:47:30;;;;;;;2.73;2.63;;;24.30;70.10;;;;;;5089542;28;43355;-73
2023/06/22 10:49:58;;;;;;;2.57;2.53;;;24.30;70.20;;;;;;5089833;28;43400;-73
2023/06/22 10:52:27;;;;;;;2.63;2.53;;;24.20;70.30;;;;;;5090122;28;43376;-72
2023/06/22 10:54:55;;;;;;;2.80;2.77;;;24.30;70.50;;;;;;5088982;28;45825;-73
2023/06/22 10:57:23;;;;;;;2.50;2.40;;;24.20;70.40;;;;;;5089239;28;43427;-72
2023/06/22 10:59:51;;;;;;;2.47;2.47;;;24.20;70.40;;;;;;5088220;28;43371;-73
2023/06/22 11:02:19;;;;;;;2.20;2.20;;;24.20;70.70;;;;;;5089855;28;43436;-72
2023/06/22 11:04:47;;;;;;;2.40;2.40;;;24.20;70.60;;;;;;5088624;28;44098;-71
2023/06/22 11:07:16;;;;;;;2.53;2.53;;;24.30;70.40;;;;;;5089904;28;43498;-72
2023/06/22 11:09:45;;;;;;;2.30;2.30;;;24.40;70.00;;;;;;5087381;28;43778;-72
2023/06/22 11:12:13;;;;;;;2.33;2.33;;;24.50;69.70;;;;;;5089519;28;43368;-72
2023/06/22 11:14:41;;;;;;;2.27;2.27;;;24.50;69.60;;;;;;5088393;28;43693;-72
2023/06/22 11:17:09;;;;;;;2.20;2.20;;;24.50;69.70;;;;;;5088696;28;43406;-72
2023/06/22 11:19:37;;;;;;;2.57;2.50;;;24.40;69.80;;;;;;5089883;28;43475;-72
2023/06/22 11:22:06;;;;;;;2.50;2.50;;;24.40;70.00;;;;;;5089476;28;43422;-72
2023/06/22 11:24:34;;;;;;;2.23;2.23;;;24.30;70.00;;;;;;5087206;28;45738;-72
2023/06/22 11:27:03;;;;;;;2.13;2.13;;;24.30;70.10;;;;;;5088479;28;43351;-72
2023/06/22 11:29:33;;;;;;;2.38;2.38;;;24.30;70.30;;;;;;5089128;28;43430;-74
2023/06/22 11:32:06;;;;;;;2.50;2.50;;;24.20;70.40;;;;;;5090097;28;43405;-74
2023/06/22 11:34:35;;;;;;;2.50;2.40;;;24.20;70.40;;;;;;5088636;28;43721;-72
2023/06/22 11:37:03;;;;;;;3.10;2.43;;;24.20;70.40;;;;;;5087637;28;44934;-72
2023/06/22 11:39:31;;;;;;;2.30;2.30;;;24.20;70.50;;;;;;5088406;28;43343;-73
2023/06/22 11:42:11;;;;;;;2.00;2.00;;;24.20;70.70;;;;;;5082136;28;43412;-72
2023/06/22 11:44:39;;;;;;;2.20;2.20;;;24.20;70.70;;;;;;5088405;28;43831;-72
2023/06/22 11:47:07;;;;;;;2.30;2.30;;;24.20;70.70;;;;;;5088246;28;43386;-72
2023/06/22 11:49:35;;;;;;;2.20;2.20;;;24.10;70.60;;;;;;5087979;28;43351;-72
2023/06/22 11:52:03;;;;;;;2.40;2.40;;;24.10;70.70;;;;;;5086210;28;43555;-72
2023/06/22 11:54:31;;;;;;;1.87;1.87;;;24.10;70.70;;;;;;5083818;28;43608;-72
2023/06/22 11:56:59;;;;;;;2.17;2.17;;;24.20;70.60;;;;;;5088673;28;43457;-73
2023/06/22 11:59:29;;;;;;;2.40;2.40;;;24.30;70.20;;;;;;5087055;28;43533;-72
2023/06/22 12:01:58;;;;;;;2.23;2.23;;;24.40;69.80;;;;;;5087220;28;43457;-72
2023/06/22 12:04:26;;;;;;;2.27;2.27;;;24.50;69.60;;;;;;5088206;28;43607;-72
2023/06/22 12:06:54;;;;;;;2.10;2.10;;;24.50;69.50;;;;;;5088487;28;43434;-72
2023/06/22 12:09:22;;;;;;;2.33;2.33;;;24.50;69.70;;;;;;5088258;28;43319;-72
2023/06/22 12:11:50;;;;;;;2.50;2.30;;;24.40;69.90;;;;;;5088371;28;43332;-72
2023/06/22 12:14:18;;;;;;;2.13;2.13;;;24.40;70.00;;;;;;5086817;28;46020;-72
2023/06/22 12:16:47;;;;;;;2.20;2.20;;;24.40;70.00;;;;;;5088584;28;43483;-72
2023/06/22 12:19:15;;;;;;;2.03;2.03;;;24.30;70.20;;;;;;5088883;28;43431;-72
2023/06/22 12:21:45;;;;;;;2.30;2.30;;;24.30;70.30;;;;;;5088435;28;43446;-73
2023/06/22 12:24:13;;;;;;;2.20;2.20;;;24.30;70.40;;;;;;5088364;28;43610;-72
2023/06/22 12:26:41;;;;;;;2.60;2.50;;;24.20;70.40;;;;;;5086188;28;45031;-72
2023/06/22 12:29:09;;;;;;;2.20;2.20;;;24.20;70.40;;;;;;5087901;28;43992;-72
2023/06/22 12:31:38;;;;;;;2.07;2.07;;;24.20;70.40;;;;;;5088022;28;44013;-72
2023/06/22 12:34:08;;;;;;;2.42;2.33;;;24.20;70.70;;;;;;5087861;28;43852;-72
2023/06/22 12:36:36;;;;;;;2.30;2.30;;;24.20;70.50;;;;;;5086161;28;44970;-74
2023/06/22 12:39:04;;;;;;;2.17;2.17;;;24.30;70.30;;;;;;5087340;28;43371;-72
2023/06/22 12:41:32;;;;;;;2.20;2.20;;;24.40;70.00;;;;;;5086542;28;43488;-72
2023/06/22 12:44:00;;;;;;;2.13;2.13;;;24.50;69.70;;;;;;5087122;28;43937;-73
2023/06/22 12:46:28;;;;;;;2.17;2.17;;;24.50;69.60;;;;;;5087366;28;43358;-72
2023/06/22 12:48:56;;;;;;;2.17;2.17;;;24.50;69.70;;;;;;5087228;28;44441;-72
2023/06/22 12:51:26;;;;;;;2.13;2.13;;;24.40;69.80;;;;;;5085754;28;43624;-72
2023/06/22 12:53:54;;;;;;;2.30;2.30;;;24.40;70.70;;;;;;5081255;28;45851;-72